Time;durP1;ratioP1;P1;durP2;ratioP2;P2;SDS_P1;SDS_P2;PMS_P1;PMS_P2;Temp;Humidity;BMP_temperature;BMP_pressure;BME280_temperature;BME280_humidity;BME280_pressure;Samples;Min_cycle;Max_cycle;Signal;HPM_P1;HPM_P2
2022/12/11 00:01:16;;;;;;;;;;;;;;;15.09;66.21;97187.31;4992990;28;19988;-79
2022/12/11 00:03:41;;;;;;;;;;;;;;;15.08;66.22;97186.47;4959696;28;19925;-79
2022/12/11 00:06:07;;;;;;;;;;;;;;;15.09;66.20;97189.94;4975834;28;19917;-79
2022/12/11 00:08:32;;;;;;;;;;;;;;;15.08;66.25;97183.06;4959632;28;19918;-78
2022/12/11 00:10:58;;;;;;;;;;;;;;;15.08;66.14;97181.22;4959249;28;20020;-79
2022/12/11 00:13:23;;;;;;;;;;;;;;;15.08;66.22;97177.78;4993218;28;19918;-79
2022/12/11 00:15:48;;;;;;;;;;;;;;;15.08;66.24;97162.03;4959394;28;20028;-79
2022/12/11 00:18:14;;;;;;;;;;;;;;;15.09;66.18;97174.19;4992547;28;20361;-80
2022/12/11 00:20:39;;;;;;;;;;;;;;;15.09;66.34;97182.06;4975453;28;19918;-80
2022/12/11 00:23:04;;;;;;;;;;;;;;;15.09;66.18;97163.66;4992662;28;19918;-79
2022/12/11 00:25:30;;;;;;;;;;;;;;;15.10;66.27;97160.84;4992562;28;19929;-80
2022/12/11 00:27:55;;;;;;;;;;;;;;;15.10;66.41;97160.00;4978532;28;20340;-79
2022/12/11 00:30:20;;;;;;;;;;;;;;;15.10;66.43;97166.09;4962653;28;19945;-79
2022/12/11 00:32:45;;;;;;;;;;;;;;;15.10;66.24;97181.88;4978388;28;19918;-79
2022/12/11 00:35:11;;;;;;;;;;;;;;;15.10;66.30;97145.09;4978858;28;20016;-79
2022/12/11 00:37:36;;;;;;;;;;;;;;;15.11;66.46;97156.41;4978252;28;20000;-79
2022/12/11 00:40:01;;;;;;;;;;;;;;;15.12;66.64;97150.16;4978644;28;20399;-79
2022/12/11 00:42:27;;;;;;;;;;;;;;;15.13;66.69;97147.34;4962427;28;20358;-78
2022/12/11 00:44:53;;;;;;;;;;;;;;;15.13;66.59;97136.84;4978083;28;20417;-78
2022/12/11 00:47:19;;;;;;;;;;;;;;;15.14;66.52;97119.25;4996067;28;19917;-78
2022/12/11 00:49:44;;;;;;;;;;;;;;;15.15;66.49;97099.84;4995946;28;20389;-78
2022/12/11 00:52:09;;;;;;;;;;;;;;;15.15;66.69;97081.47;4961904;28;19917;-78
2022/12/11 00:54:35;;;;;;;;;;;;;;;15.16;66.41;97072.56;4996023;28;20024;-79
2022/12/11 00:57:00;;;;;;;;;;;;;;;15.16;66.54;97048.91;4978559;28;20377;-79
2022/12/11 00:59:26;;;;;;;;;;;;;;;15.14;66.41;97022.81;4995481;28;19924;-79
2022/12/11 01:01:52;;;;;;;;;;;;;;;15.15;66.56;97021.00;4978280;28;19918;-77
2022/12/11 01:04:17;;;;;;;;;;;;;;;15.14;66.79;97009.66;4995665;28;20282;-80
2022/12/11 01:06:42;;;;;;;;;;;;;;;15.15;67.21;97021.81;4995499;28;19925;-78
2022/12/11 01:11:51;;;;;;;;;;;;;;;15.18;66.96;97000.41;4995620;28;19924;-77
2022/12/11 01:14:17;;;;;;;;;;;;;;;15.19;67.58;97006.47;4961873;28;19918;-77
2022/12/11 01:16:42;;;;;;;;;;;;;;;15.21;67.57;97025.50;4978049;28;19924;-77
2022/12/11 01:19:07;;;;;;;;;;;;;;;15.23;67.39;97034.03;4977735;28;20278;-77
2022/12/11 01:21:33;;;;;;;;;;;;;;;15.24;67.61;97019.84;4977933;28;19941;-79
2022/12/11 01:23:58;;;;;;;;;;;;;;;15.25;67.19;97003.09;4977919;28;20381;-77
2022/12/11 01:26:23;;;;;;;;;;;;;;;15.27;67.51;97003.72;4994170;28;20392;-78
2022/12/11 01:28:49;;;;;;;;;;;;;;;15.28;67.17;96994.81;4961425;28;20016;-78
2022/12/11 01:31:15;;;;;;;;;;;;;;;15.30;67.08;96989.38;4977931;28;19918;-78
2022/12/11 01:33:40;;;;;;;;;;;;;;;15.30;67.11;96992.81;4977793;28;19944;-78
2022/12/11 01:36:09;;;;;;;;;;;;;;;15.30;67.09;96997.28;4978419;28;19918;-78
2022/12/11 01:38:35;;;;;;;;;;;;;;;15.30;67.04;96992.81;4977112;28;19918;-78
2022/12/11 01:41:00;;;;;;;;;;;;;;;15.31;66.92;96998.91;4961386;28;20428;-78
2022/12/11 01:43:25;;;;;;;;;;;;;;;15.31;66.80;96996.28;4977211;28;19957;-78
2022/12/11 01:45:51;;;;;;;;;;;;;;;15.31;66.91;96988.38;4961452;28;20039;-78
2022/12/11 01:48:26;;;;;;;;;;;;;;;15.30;66.76;96995.44;4977499;28;19937;-77
2022/12/11 01:50:53;;;;;;;;;;;;;;;15.31;66.88;96977.88;4961256;28;19924;-78
2022/12/11 01:53:19;;;;;;;;;;;;;;;15.29;66.82;96971.97;4977812;28;19918;-76
2022/12/11 01:55:45;;;;;;;;;;;;;;;15.29;66.81;96956.19;4977683;28;19925;-79
2022/12/11 01:58:10;;;;;;;;;;;;;;;15.28;66.91;96952.78;4977117;28;19922;-78
2022/12/11 02:00:36;;;;;;;;;;;;;;;15.28;66.92;96944.88;4977179;28;20340;-80
2022/12/11 02:03:01;;;;;;;;;;;;;;;15.29;67.53;96949.16;4994277;28;19918;-77
2022/12/11 02:05:26;;;;;;;;;;;;;;;15.30;67.25;96945.50;4995077;28;19918;-78
2022/12/11 02:07:54;;;;;;;;;;;;;;;15.33;67.75;96952.19;4960516;28;19918;-78
2022/12/11 02:10:19;;;;;;;;;;;;;;;15.34;67.87;96946.75;4960550;28;20017;-78
2022/12/11 02:12:44;;;;;;;;;;;;;;;15.35;68.07;96945.75;4976970;28;20032;-78
2022/12/11 02:15:11;;;;;;;;;;;;;;;15.38;68.10;96944.53;4994329;28;19973;-78
2022/12/11 02:17:45;;;;;;;;;;;;;;;15.43;68.30;96936.88;4977044;28;19925;-78
2022/12/11 02:20:25;;;;;;;;;;;;;;;15.46;68.19;96930.44;4994181;28;19925;-78
2022/12/11 02:23:09;;;;;;;;;;;;;;;15.48;68.19;96920.53;4977006;28;19918;-77
2022/12/11 02:25:49;;;;;;;;;;;;;;;15.53;68.19;96918.97;4994516;28;19918;-78
2022/12/11 02:28:33;;;;;;;;;;;;;;;15.54;68.26;96910.09;4993913;28;20382;-78
2022/12/11 02:31:00;;;;;;;;;;;;;;;15.62;67.94;96916.97;4994344;28;19918;-77
2022/12/11 02:33:36;;;;;;;;;;;;;;;15.66;67.93;96881.41;4960343;28;19918;-77
2022/12/11 02:36:01;;;;;;;;;;;;;;;15.69;67.67;96883.66;4960614;28;19944;-78
2022/12/11 02:38:27;;;;;;;;;;;;;;;15.73;67.67;96845.44;4976695;28;20433;-77
2022/12/11 02:40:53;;;;;;;;;;;;;;;15.78;67.41;96841.41;4976866;28;19972;-77
2022/12/11 02:43:19;;;;;;;;;;;;;;;15.83;67.40;96846.91;4960566;28;19925;-77
2022/12/11 02:45:44;;;;;;;;;;;;;;;15.87;66.94;96854.19;4960768;28;20446;-77
2022/12/11 02:48:10;;;;;;;;;;;;;;;15.94;66.86;96863.94;4980653;28;19924;-77
2022/12/11 02:50:35;;;;;;;;;;;;;;;15.97;66.46;96848.59;4981951;28;19924;-77
2022/12/11 02:53:00;;;;;;;;;;;;;;;16.00;66.29;96852.63;4977047;28;20466;-78
2022/12/11 02:55:26;;;;;;;;;;;;;;;16.01;66.17;96859.53;4976371;28;20258;-78
2022/12/11 02:58:10;;;;;;;;;;;;;;;16.02;66.03;96855.88;4993798;28;19925;-78
2022/12/11 03:00:35;;;;;;;;;;;;;;;16.03;66.08;96850.41;4994064;28;19918;-78
2022/12/11 03:03:01;;;;;;;;;;;;;;;16.02;66.04;96840.91;4960061;28;20020;-78
2022/12/11 03:05:26;;;;;;;;;;;;;;;16.04;65.87;96838.88;4976204;28;19924;-78
2022/12/11 03:07:52;;;;;;;;;;;;;;;16.05;65.92;96837.88;4976848;28;19922;-76
2022/12/11 03:10:17;;;;;;;;;;;;;;;16.05;66.01;96864.19;4993577;28;19925;-77
2022/12/11 03:12:44;;;;;;;;;;;;;;;16.07;65.85;96851.66;4960244;28;19917;-78
2022/12/11 03:15:13;;;;;;;;;;;;;;;16.08;65.94;96845.38;4959962;28;19997;-76
2022/12/11 03:18:02;;;;;;;;;;;;;;;16.09;65.75;96833.81;4976279;28;20296;-77
2022/12/11 03:20:36;;;;;;;;;;;;;;;16.10;65.82;96817.03;4914564;29;20390;-78
2022/12/11 03:23:10;;;;;;;;;;;;;;;16.12;65.94;96831.84;4914567;29;20339;-77
2022/12/11 03:26:01;;;;;;;;;;;;;;;16.14;65.66;96814.00;4914730;29;20385;-77
2022/12/11 03:28:30;;;;;;;;;;;;;;;16.14;65.48;96824.53;4911668;29;20434;-77
2022/12/11 03:30:56;;;;;;;;;;;;;;;16.16;65.27;96823.34;4898829;29;19923;-76
2022/12/11 03:33:25;;;;;;;;;;;;;;;16.17;65.33;96817.03;4898695;29;20016;-80
2022/12/11 03:35:51;;;;;;;;;;;;;;;16.21;65.09;96805.13;4898799;29;19919;-79
2022/12/11 03:38:17;;;;;;;;;;;;;;;16.22;65.15;96822.50;4898611;29;19946;-78
2022/12/11 03:40:43;;;;;;;;;;;;;;;16.23;65.37;96800.44;4898765;29;19963;-80
2022/12/11 03:43:08;;;;;;;;;;;;;;;16.23;65.38;96784.66;4898516;29;20373;-79
2022/12/11 03:45:34;;;;;;;;;;;;;;;16.23;65.17;96802.28;4898269;29;19931;-79
2022/12/11 03:47:59;;;;;;;;;;;;;;;16.24;65.32;96794.19;4898477;29;19923;-80
2022/12/11 03:50:25;;;;;;;;;;;;;;;16.25;65.17;96827.38;4898093;29;20417;-80
2022/12/11 03:52:50;;;;;;;;;;;;;;;16.25;65.25;96823.94;4898570;29;19923;-80
2022/12/11 03:55:15;;;;;;;;;;;;;;;16.22;65.26;96825.16;4914293;29;19932;-83
2022/12/11 03:57:41;;;;;;;;;;;;;;;16.23;65.19;96826.78;4942049;28;20393;-82
2022/12/11 04:00:07;;;;;;;;;;;;;;;16.23;65.25;96818.09;4972586;28;19918;-82
2022/12/11 04:02:32;;;;;;;;;;;;;;;16.23;65.18;96800.44;4976163;28;19997;-79
2022/12/11 04:04:58;;;;;;;;;;;;;;;16.24;65.06;96814.41;4976303;28;20013;-79
2022/12/11 04:07:23;;;;;;;;;;;;;;;16.27;64.96;96803.50;4977467;28;19969;-79
2022/12/11 04:09:48;;;;;;;;;;;;;;;16.28;64.85;96805.91;4977488;28;19918;-80
2022/12/11 04:12:14;;;;;;;;;;;;;;;16.30;64.76;96812.81;4977953;28;20426;-80
2022/12/11 04:25:34;;;;;;;;;;;;;;;16.35;64.90;96802.50;4977239;28;19925;-81
2022/12/11 04:28:00;;;;;;;;;;;;;;;16.35;64.72;96790.16;4977023;28;19922;-81
2022/12/11 04:30:25;;;;;;;;;;;;;;;16.37;64.60;96803.13;4976101;28;19922;-81
2022/12/11 04:32:51;;;;;;;;;;;;;;;16.36;65.04;96791.75;4975822;28;19936;-81
2022/12/11 04:35:16;;;;;;;;;;;;;;;16.35;65.03;96774.34;4975943;28;20374;-81
2022/12/11 04:37:41;;;;;;;;;;;;;;;16.36;64.96;96780.44;4975633;28;20021;-81
2022/12/11 04:40:08;;;;;;;;;;;;;;;16.35;64.82;96790.16;4975855;28;20310;-82
2022/12/11 04:42:33;;;;;;;;;;;;;;;16.34;64.85;96791.16;4975503;28;20401;-82
2022/12/11 04:44:58;;;;;;;;;;;;;;;16.34;64.83;96793.78;4974864;28;20008;-82
2022/12/11 04:47:24;;;;;;;;;;;;;;;16.35;64.94;96791.97;4976636;28;19924;-82
2022/12/11 04:49:49;;;;;;;;;;;;;;;16.34;64.83;96791.16;4976422;28;19996;-82
2022/12/11 04:52:14;;;;;;;;;;;;;;;16.33;64.96;96792.16;4981058;28;20320;-82
2022/12/11 04:54:40;;;;;;;;;;;;;;;16.34;65.00;96793.78;4978340;28;19922;-82
2022/12/11 04:57:05;;;;;;;;;;;;;;;16.32;65.00;96795.81;4978336;28;19917;-82
2022/12/11 04:59:34;;;;;;;;;;;;;;;16.30;64.96;96810.19;4962102;28;19957;-82
2022/12/11 05:01:59;;;;;;;;;;;;;;;16.26;64.91;96802.69;4978321;28;19930;-81
2022/12/11 05:04:24;;;;;;;;;;;;;;;16.23;65.08;96803.09;4995646;28;20400;-79
2022/12/11 05:06:50;;;;;;;;;;;;;;;16.22;64.83;96808.56;4962498;28;20391;-80
2022/12/11 05:09:15;;;;;;;;;;;;;;;16.21;65.15;96820.13;4978327;28;20020;-81
2022/12/11 05:11:40;;;;;;;;;;;;;;;16.17;65.00;96822.31;4977891;28;19929;-81
2022/12/11 05:14:06;;;;;;;;;;;;;;;16.16;65.12;96830.41;4961534;28;19917;-79
2022/12/11 05:16:31;;;;;;;;;;;;;;;16.13;65.00;96828.16;4978075;28;19918;-82
2022/12/11 05:18:56;;;;;;;;;;;;;;;16.10;65.23;96832.81;4961457;28;19918;-82
2022/12/11 05:21:23;;;;;;;;;;;;;;;16.09;65.41;96830.41;4995627;28;19929;-83
2022/12/11 05:23:48;;;;;;;;;;;;;;;16.06;65.32;96834.22;4961744;28;19918;-82
2022/12/11 05:26:15;;;;;;;;;;;;;;;16.04;65.25;96825.72;4995351;28;19983;-81
2022/12/11 05:28:40;;;;;;;;;;;;;;;16.03;65.32;96826.72;4977763;28;20393;-83
2022/12/11 05:31:18;;;;;;;;;;;;;;;16.02;65.31;96846.16;4961846;28;19989;-81
2022/12/11 05:33:44;;;;;;;;;;;;;;;16.00;65.40;96848.19;4962189;28;19938;-82
2022/12/11 05:36:13;;;;;;;;;;;;;;;15.99;65.56;96848.41;4978141;28;20381;-81
2022/12/11 05:38:38;;;;;;;;;;;;;;;15.97;65.50;96856.50;4977754;28;19925;-81
2022/12/11 05:41:04;;;;;;;;;;;;;;;15.96;65.57;96859.31;4961788;28;19918;-80
2022/12/11 05:43:30;;;;;;;;;;;;;;;15.93;65.57;96857.88;4977819;28;20308;-83
2022/12/11 05:45:55;;;;;;;;;;;;;;;15.92;65.67;96861.50;4961437;28;19926;-82
2022/12/11 05:48:21;;;;;;;;;;;;;;;15.93;65.76;96868.41;4977769;28;20292;-83
2022/12/11 05:50:59;;;;;;;;;;;;;;;15.93;65.59;96867.59;4978066;28;19918;-82
2022/12/11 05:53:24;;;;;;;;;;;;;;;15.93;65.73;96859.72;4961078;28;19933;-77
2022/12/11 05:55:50;;;;;;;;;;;;;;;15.93;65.65;96860.50;4961113;28;19917;-81
2022/12/11 05:58:15;;;;;;;;;;;;;;;15.94;65.44;96863.94;4960877;28;20005;-80
2022/12/11 06:00:40;;;;;;;;;;;;;;;15.95;65.47;96855.84;4961074;28;20375;-82
2022/12/11 06:03:06;;;;;;;;;;;;;;;15.96;65.49;96868.00;4960836;28;19922;-82
2022/12/11 06:05:31;;;;;;;;;;;;;;;16.01;65.50;96883.22;4961100;28;19918;-82
2022/12/11 06:07:56;;;;;;;;;;;;;;;16.05;65.34;96873.91;4961094;28;19922;-81
2022/12/11 06:10:22;;;;;;;;;;;;;;;16.13;65.20;96880.81;4977848;28;19918;-81
2022/12/11 06:12:47;;;;;;;;;;;;;;;16.22;65.03;96877.78;4983967;28;19925;-81
2022/12/11 06:15:12;;;;;;;;;;;;;;;16.37;64.83;96887.38;4970669;28;19925;-82
2022/12/11 06:17:37;;;;;;;;;;;;;;;16.89;63.66;96885.03;4978188;28;20305;-82
2022/12/11 06:20:03;;;;;;;;;;;;;;;17.31;62.94;96889.03;4977560;28;19917;-80
2022/12/11 06:22:29;;;;;;;;;;;;;;;18.08;61.00;96907.75;4960924;28;19922;-81
2022/12/11 06:24:54;;;;;;;;;;;;;;;18.76;59.62;96909.00;4976519;28;20012;-80
2022/12/11 06:27:19;;;;;;;;;;;;;;;19.72;57.80;96898.22;4977257;28;19918;-81
2022/12/11 06:29:45;;;;;;;;;;;;;;;20.78;55.41;96909.34;4976754;28;19922;-79
2022/12/11 06:32:11;;;;;;;;;;;;;;;21.46;54.34;96917.84;4961060;28;19922;-79
2022/12/11 06:34:36;;;;;;;;;;;;;;;20.49;56.52;96932.16;4961008;28;19918;-79
2022/12/11 06:37:01;;;;;;;;;;;;;;;20.01;56.27;96922.38;4999272;28;19921;-84
2022/12/11 06:39:26;;;;;;;;;;;;;;;19.69;57.43;96928.59;4982640;28;20008;-82
2022/12/11 06:41:53;;;;;;;;;;;;;;;19.50;57.54;96921.66;4960814;28;19964;-80
2022/12/11 06:44:18;;;;;;;;;;;;;;;19.32;57.82;96928.53;4994161;28;19979;-80
2022/12/11 06:46:43;;;;;;;;;;;;;;;19.19;57.60;96922.56;4976795;28;19925;-80
2022/12/11 06:49:09;;;;;;;;;;;;;;;19.07;57.80;96925.91;4960443;28;20060;-82
2022/12/11 06:51:35;;;;;;;;;;;;;;;19.02;57.54;96916.97;4993729;28;19965;-83
2022/12/11 06:54:00;;;;;;;;;;;;;;;19.04;57.48;96910.47;4960341;28;19925;-83
2022/12/11 06:56:26;;;;;;;;;;;;;;;19.07;57.03;96912.69;4993729;28;19917;-83
2022/12/11 06:58:51;;;;;;;;;;;;;;;19.14;57.06;96910.78;4960315;28;19922;-83
2022/12/11 07:01:21;;;;;;;;;;;;;;;19.23;57.26;96934.31;4976757;28;19918;-83
2022/12/11 07:03:46;;;;;;;;;;;;;;;19.26;57.20;96933.88;4993672;28;20016;-83
2022/12/11 07:06:11;;;;;;;;;;;;;;;19.31;57.17;96926.91;4977058;28;20014;-82
2022/12/11 07:08:37;;;;;;;;;;;;;;;19.33;57.23;96929.34;4976486;28;20008;-81
2022/12/11 07:11:07;;;;;;;;;;;;;;;19.31;57.32;96928.75;4976413;28;19961;-80
2022/12/11 07:13:32;;;;;;;;;;;;;;;19.27;57.48;96930.22;4976299;28;19917;-81
2022/12/11 07:15:59;;;;;;;;;;;;;;;19.23;57.59;96926.38;4959946;28;20436;-79
2022/12/11 07:18:24;;;;;;;;;;;;;;;19.19;57.22;96927.84;4975736;28;20346;-75
2022/12/11 07:20:50;;;;;;;;;;;;;;;19.11;56.64;96921.78;4976197;28;19922;-75
2022/12/11 07:23:15;;;;;;;;;;;;;;;19.01;56.73;96918.00;4993441;28;19992;-79
2022/12/11 07:25:40;;;;;;;;;;;;;;;18.97;56.68;96923.72;4976374;28;20328;-74
2022/12/11 07:28:06;;;;;;;;;;;;;;;18.94;56.88;96934.75;4976078;28;20282;-75
2022/12/11 07:30:31;;;;;;;;;;;;;;;18.88;57.40;96930.31;4976123;28;19918;-75
2022/12/11 07:32:56;;;;;;;;;;;;;;;18.84;57.51;96934.41;4976492;28;19926;-77
2022/12/11 07:35:22;;;;;;;;;;;;;;;18.81;57.45;96943.53;4996690;28;19918;-79
2022/12/11 07:37:47;;;;;;;;;;;;;;;18.78;57.65;96941.31;4979693;28;19921;-79
2022/12/11 07:40:13;;;;;;;;;;;;;;;18.75;57.63;96947.00;4988972;28;20326;-79
2022/12/11 07:42:38;;;;;;;;;;;;;;;18.70;57.10;96951.34;4998806;28;20296;-80
2022/12/11 07:45:03;;;;;;;;;;;;;;;18.69;57.19;96955.00;4982444;28;19932;-81
2022/12/11 07:47:29;;;;;;;;;;;;;;;18.69;56.35;96947.91;4999868;28;20280;-78
2022/12/11 07:49:55;;;;;;;;;;;;;;;18.69;56.21;96953.19;4999634;28;19924;-78
2022/12/11 07:52:20;;;;;;;;;;;;;;;18.70;56.66;96951.34;4983004;28;19968;-79
2022/12/11 07:54:46;;;;;;;;;;;;;;;18.67;56.49;96957.03;5017398;28;19918;-74
2022/12/11 07:57:11;;;;;;;;;;;;;;;18.62;56.70;96953.19;5016950;28;20380;-74
2022/12/11 07:59:37;;;;;;;;;;;;;;;18.60;56.83;96954.44;4999002;28;20300;-73
2022/12/11 08:02:02;;;;;;;;;;;;;;;18.56;56.87;96948.75;4999118;28;20012;-72
2022/12/11 08:04:27;;;;;;;;;;;;;;;18.56;57.02;96955.88;4982777;28;19946;-72
2022/12/11 08:06:52;;;;;;;;;;;;;;;18.58;56.98;96951.19;4999539;28;20340;-76
2022/12/11 08:09:21;;;;;;;;;;;;;;;18.55;56.94;96941.88;4998647;28;20292;-73
2022/12/11 08:11:50;;;;;;;;;;;;;;;18.56;57.54;96947.94;4983067;28;19924;-72
2022/12/11 08:14:15;;;;;;;;;;;;;;;18.59;57.87;96943.03;4999082;28;20507;-71
2022/12/11 08:16:42;;;;;;;;;;;;;;;18.68;57.41;96937.53;5016847;28;19981;-71
2022/12/11 08:19:08;;;;;;;;;;;;;;;18.77;57.09;96930.94;5015848;28;20008;-73
2022/12/11 08:21:33;;;;;;;;;;;;;;;18.87;56.80;96933.16;4982560;28;19924;-71
2022/12/11 08:23:58;;;;;;;;;;;;;;;18.99;56.65;96939.38;4999481;28;19918;-70
2022/12/11 08:26:28;;;;;;;;;;;;;;;19.52;55.67;96946.88;4998596;28;19952;-71
2022/12/11 08:28:53;;;;;;;;;;;;;;;19.97;55.07;96945.84;4997752;28;19924;-71
2022/12/11 08:31:18;;;;;;;;;;;;;;;19.94;54.53;96937.50;4998717;28;19917;-75
2022/12/11 08:33:44;;;;;;;;;;;;;;;19.95;54.03;96947.88;4982140;28;19918;-73
2022/12/11 08:36:10;;;;;;;;;;;;;;;19.87;54.23;96941.03;4998210;28;19917;-73
2022/12/11 08:38:35;;;;;;;;;;;;;;;19.81;54.42;96941.91;4998202;28;19960;-76
2022/12/11 08:41:10;;;;;;;;;;;;;;;19.85;54.19;96942.31;5016220;28;19964;-74
2022/12/11 08:43:36;;;;;;;;;;;;;;;19.77;53.16;96929.38;4998615;28;19921;-76
2022/12/11 08:46:01;;;;;;;;;;;;;;;19.80;53.72;96924.44;4998195;28;19987;-77
2022/12/11 08:48:26;;;;;;;;;;;;;;;19.82;53.64;96919.72;4996309;28;19924;-76
2022/12/11 08:50:52;;;;;;;;;;;;;;;19.91;53.68;96912.31;5015035;28;19917;-78
2022/12/11 08:53:17;;;;;;;;;;;;;;;20.00;53.24;96907.50;4997171;28;19917;-80
2022/12/11 08:55:42;;;;;;;;;;;;;;;20.05;52.88;96912.94;5014639;28;19921;-79
2022/12/11 08:58:07;;;;;;;;;;;;;;;20.09;52.67;96913.31;4980727;28;19931;-77
2022/12/11 09:00:33;;;;;;;;;;;;;;;20.11;52.65;96913.91;5014662;28;19925;-78
2022/12/11 09:02:58;;;;;;;;;;;;;;;20.21;52.20;96911.53;4997635;28;20012;-78
2022/12/11 09:05:23;;;;;;;;;;;;;;;20.35;51.98;96917.47;4979718;28;19924;-75
2022/12/11 09:07:49;;;;;;;;;;;;;;;20.66;51.01;96919.09;5014133;28;19924;-77
2022/12/11 09:10:14;;;;;;;;;;;;;;;21.53;49.75;96916.94;4996635;28;19952;-77
2022/12/11 09:12:39;;;;;;;;;;;;;;;22.26;48.29;96922.69;4996886;28;19960;-78
2022/12/11 09:15:05;;;;;;;;;;;;;;;22.77;47.08;96928.97;4996717;28;19956;-79
2022/12/11 09:17:30;;;;;;;;;;;;;;;23.52;45.08;96919.00;5015099;28;20015;-71
2022/12/11 09:19:55;;;;;;;;;;;;;;;23.95;43.03;96925.47;4997795;28;19918;-73
2022/12/11 09:22:21;;;;;;;;;;;;;;;24.26;42.39;96922.34;4981050;28;19922;-74
2022/12/11 09:24:46;;;;;;;;;;;;;;;24.14;41.45;96919.84;4997512;28;20029;-74
2022/12/11 09:27:11;;;;;;;;;;;;;;;23.95;42.64;96919.34;4997958;28;19984;-76
2022/12/11 09:29:37;;;;;;;;;;;;;;;23.53;42.71;96915.31;4981304;28;19917;-74
2022/12/11 09:32:02;;;;;;;;;;;;;;;23.10;43.07;96895.47;4998696;28;19917;-74
2022/12/11 09:34:27;;;;;;;;;;;;;;;22.80;43.54;96898.44;4998166;28;20008;-75
2022/12/11 09:36:53;;;;;;;;;;;;;;;22.45;44.28;96891.44;4982145;28;20377;-74
2022/12/11 09:39:18;;;;;;;;;;;;;;;22.26;45.20;96886.28;4961990;28;20381;-77
2022/12/11 09:42:14;;;;;;;;;;;;;;;22.15;46.12;96895.13;4978251;28;19944;-73
2022/12/11 09:44:44;;;;;;;;;;;;;;;22.04;46.77;96894.09;4900338;29;20450;-76
2022/12/11 09:47:13;;;;;;;;;;;;;;;22.07;46.02;96896.28;4900942;29;19919;-78
2022/12/11 09:49:39;;;;;;;;;;;;;;;22.14;46.42;96898.81;4900376;29;20307;-74
2022/12/11 09:52:06;;;;;;;;;;;;;;;22.05;46.22;96893.06;4901064;29;19967;-76
2022/12/11 09:54:31;;;;;;;;;;;;;;;21.95;46.54;96900.81;4900492;29;20017;-76
2022/12/11 09:57:15;;;;;;;;;;;;;;;21.86;47.72;96898.53;4900435;29;20539;-75
2022/12/11 09:59:41;;;;;;;;;;;;;;;21.74;47.52;96887.13;4915952;29;19919;-78
2022/12/11 10:02:28;;;;;;;;;;;;;;;21.68;47.87;96893.41;4916200;29;20338;-74
2022/12/11 10:04:59;;;;;;;;;;;;;;;21.69;47.77;96879.06;4899957;29;19946;-75
2022/12/11 10:07:31;;;;;;;;;;;;;;;21.76;48.12;96878.91;4899867;29;19919;-73
2022/12/11 10:10:02;;;;;;;;;;;;;;;21.87;47.54;96875.47;4899374;29;19919;-82
2022/12/11 10:12:42;;;;;;;;;;;;;;;21.78;47.57;96882.16;4899926;29;19963;-77
2022/12/11 10:15:31;;;;;;;;;;;;;;;21.72;47.99;96870.63;4899333;29;19945;-79
2022/12/11 10:17:56;;;;;;;;;;;;;;;21.78;47.31;96869.69;4878448;29;19958;-78
2022/12/11 10:20:26;;;;;;;;;;;;;;;21.78;47.75;96855.63;4886109;29;19966;-79
2022/12/11 10:22:52;;;;;;;;;;;;;;;21.74;48.12;96854.47;4915849;29;19919;-79
2022/12/11 10:25:27;;;;;;;;;;;;;;;21.69;47.98;96847.19;4915415;29;20284;-79
2022/12/11 10:27:53;;;;;;;;;;;;;;;21.71;48.02;96866.34;4915556;29;20009;-79
2022/12/11 10:30:18;;;;;;;;;;;;;;;21.59;48.21;96869.03;4915297;29;20127;-78
2022/12/11 10:32:46;;;;;;;;;;;;;;;21.48;48.29;96880.44;4915471;29;19919;-78
2022/12/11 10:35:38;;;;;;;;;;;;;;;21.35;48.62;96876.19;4915394;29;20343;-78
2022/12/11 10:38:10;;;;;;;;;;;;;;;21.23;49.10;96876.19;4912743;29;20009;-78
2022/12/11 10:40:35;;;;;;;;;;;;;;;21.09;49.36;96870.28;4915185;29;19971;-79
2022/12/11 10:43:00;;;;;;;;;;;;;;;21.02;49.65;96871.47;4899473;29;19926;-77
2022/12/11 10:45:25;;;;;;;;;;;;;;;20.96;49.63;96881.13;4898928;29;20417;-78
2022/12/11 10:48:00;;;;;;;;;;;;;;;20.89;49.86;96872.47;4898716;29;19923;-79
2022/12/11 10:50:25;;;;;;;;;;;;;;;20.84;49.95;96875.81;4915648;29;19919;-78
2022/12/11 10:52:51;;;;;;;;;;;;;;;20.74;50.08;96872.91;4899327;29;19923;-78
2022/12/11 10:55:20;;;;;;;;;;;;;;;20.69;50.00;96878.09;4956621;28;20041;-78
2022/12/11 10:57:45;;;;;;;;;;;;;;;20.63;50.78;96871.00;4994053;28;19917;-77
2022/12/11 11:00:34;;;;;;;;;;;;;;;20.56;50.35;96855.22;4976614;28;19922;-78
2022/12/11 11:03:00;;;;;;;;;;;;;;;20.46;50.65;96862.88;4915567;29;19919;-78
2022/12/11 11:05:28;;;;;;;;;;;;;;;20.43;50.89;96867.63;4914563;29;20495;-78
2022/12/11 11:08:12;;;;;;;;;;;;;;;20.42;51.10;96855.41;4915185;29;19920;-79
2022/12/11 11:10:37;;;;;;;;;;;;;;;20.42;51.16;96855.41;4914546;29;20355;-78
2022/12/11 11:13:03;;;;;;;;;;;;;;;20.41;51.35;96845.03;4912091;29;20026;-79
2022/12/11 11:15:28;;;;;;;;;;;;;;;20.37;51.54;96838.56;4899319;29;20043;-78
2022/12/11 11:17:54;;;;;;;;;;;;;;;20.32;51.68;96843.72;4915163;29;20385;-78
2022/12/11 11:20:21;;;;;;;;;;;;;;;20.31;51.57;96844.78;4898949;29;20029;-78
2022/12/11 11:22:47;;;;;;;;;;;;;;;20.31;51.61;96842.91;4899220;29;20018;-79
2022/12/11 11:25:16;;;;;;;;;;;;;;;20.31;51.38;96840.28;4898981;29;19920;-78
2022/12/11 11:27:50;;;;;;;;;;;;;;;20.33;51.37;96840.03;4898084;29;20026;-79
2022/12/11 11:30:20;;;;;;;;;;;;;;;20.35;51.48;96833.50;4899215;29;19942;-76
2022/12/11 11:32:45;;;;;;;;;;;;;;;20.36;51.23;96831.66;4899156;29;19966;-78
2022/12/11 11:35:10;;;;;;;;;;;;;;;20.39;51.43;96828.53;4899197;29;19966;-77
2022/12/11 11:37:36;;;;;;;;;;;;;;;20.40;51.40;96825.66;4914672;29;20017;-77
2022/12/11 11:40:28;;;;;;;;;;;;;;;20.41;51.06;96826.47;4939443;28;19939;-79
2022/12/11 11:43:07;;;;;;;;;;;;;;;20.42;50.85;96820.94;4989380;28;19922;-77
2022/12/11 11:45:35;;;;;;;;;;;;;;;20.46;50.76;96828.44;4975153;28;19933;-82
2022/12/11 11:48:23;;;;;;;;;;;;;;;20.48;50.87;96835.13;4959644;28;19925;-72
2022/12/11 11:50:49;;;;;;;;;;;;;;;20.41;50.92;96829.13;4932031;29;20442;-77
2022/12/11 11:53:30;;;;;;;;;;;;;;;20.54;50.52;96831.59;4916183;29;19958;-79
2022/12/11 11:56:15;;;;;;;;;;;;;;;20.65;50.23;96830.00;4915165;29;19926;-82
2022/12/11 11:58:41;;;;;;;;;;;;;;;20.81;50.48;96825.06;4915571;29;19919;-80
2022/12/11 12:01:13;;;;;;;;;;;;;;;21.00;50.02;96823.13;4898985;29;19958;-80
2022/12/11 12:03:39;;;;;;;;;;;;;;;21.05;50.16;96825.91;4915955;29;19919;-82
2022/12/11 12:06:23;;;;;;;;;;;;;;;21.18;49.78;96828.31;4914455;29;20141;-77
2022/12/11 12:08:57;;;;;;;;;;;;;;;21.28;49.32;96830.38;4931411;29;19923;-77
2022/12/11 12:11:27;;;;;;;;;;;;;;;21.37;48.83;96810.41;4930896;29;19919;-76
2022/12/11 12:13:58;;;;;;;;;;;;;;;21.43;48.61;96814.78;4915682;29;19915;-77
2022/12/11 12:16:42;;;;;;;;;;;;;;;21.43;48.47;96819.31;4932205;29;19925;-79
2022/12/11 12:19:26;;;;;;;;;;;;;;;21.48;48.19;96806.97;4932174;29;19919;-75
2022/12/11 12:21:54;;;;;;;;;;;;;;;21.37;48.35;96802.44;4901691;29;19922;-71
2022/12/11 12:24:25;;;;;;;;;;;;;;;21.36;48.91;96808.78;4904694;29;19919;-81
2022/12/11 12:26:52;;;;;;;;;;;;;;;21.32;48.75;96805.00;4926078;28;20018;-75
2022/12/11 12:29:20;;;;;;;;;;;;;;;21.26;48.77;96800.63;4978240;28;19918;-74
2022/12/11 12:31:49;;;;;;;;;;;;;;;21.26;47.74;96800.63;4995072;28;19917;-71
2022/12/11 12:34:28;;;;;;;;;;;;;;;21.25;47.27;96791.88;4977892;28;19918;-70
2022/12/11 12:36:56;;;;;;;;;;;;;;;21.24;47.40;96789.44;4977287;28;20365;-73
2022/12/11 12:39:26;;;;;;;;;;;;;;;21.14;47.62;96784.69;4976250;28;19980;-72
2022/12/11 12:41:51;;;;;;;;;;;;;;;21.06;47.73;96791.19;4959564;28;19921;-71
2022/12/11 12:44:17;;;;;;;;;;;;;;;21.01;47.90;96799.03;4993139;28;19925;-70
2022/12/11 12:46:45;;;;;;;;;;;;;;;21.00;47.40;96805.38;4975493;28;19961;-71
2022/12/11 12:49:15;;;;;;;;;;;;;;;20.95;47.55;96800.75;4975743;28;20016;-72
2022/12/11 12:51:40;;;;;;;;;;;;;;;20.95;47.65;96790.16;4976347;28;19976;-72
2022/12/11 12:54:06;;;;;;;;;;;;;;;20.90;47.57;96787.38;4960894;28;19957;-71
2022/12/11 12:56:31;;;;;;;;;;;;;;;20.85;47.09;96786.47;4978031;28;20392;-70
2022/12/11 12:58:56;;;;;;;;;;;;;;;20.78;47.60;96790.03;4995003;28;20020;-70
2022/12/11 13:01:23;;;;;;;;;;;;;;;20.73;47.68;96786.44;4995063;28;19917;-71
2022/12/11 13:04:00;;;;;;;;;;;;;;;20.69;47.77;96790.59;4977513;28;20064;-71